sensor_id;sensor_type;location;lat;lon;timestamp;temperature;humidity
15906;DHT22;8051;50.820;4.884;2022-10-19T00:01:28;10.30;99.90
15906;DHT22;8051;50.820;4.884;2022-10-19T00:03:55;10.30;99.90
15906;DHT22;8051;50.820;4.884;2022-10-19T00:06:25;10.20;99.90
15906;DHT22;8051;50.820;4.884;2022-10-19T00:08:54;10.20;99.90
15906;DHT22;8051;50.820;4.884;2022-10-19T00:11:22;10.30;99.90
15906;DHT22;8051;50.820;4.884;2022-10-19T00:13:49;10.30;99.90
15906;DHT22;8051;50.820;4.884;2022-10-19T00:16:17;10.30;99.90
15906;DHT22;8051;50.820;4.884;2022-10-19T00:18:44;10.20;99.90
15906;DHT22;8051;50.820;4.884;2022-10-19T00:21:12;10.20;99.90
15906;DHT22;8051;50.820;4.884;2022-10-19T00:23:40;10.20;99.90
15906;DHT22;8051;50.820;4.884;2022-10-19T00:26:09;10.10;99.90
15906;DHT22;8051;50.820;4.884;2022-10-19T00:28:36;10.10;99.90
15906;DHT22;8051;50.820;4.884;2022-10-19T00:31:03;10.00;99.90
15906;DHT22;8051;50.820;4.884;2022-10-19T00:33:31;10.00;99.90
15906;DHT22;8051;50.820;4.884;2022-10-19T00:35:58;9.90;99.90
15906;DHT22;8051;50.820;4.884;2022-10-19T00:38:25;9.90;99.90
15906;DHT22;8051;50.820;4.884;2022-10-19T00:40:52;9.90;99.90
15906;DHT22;8051;50.820;4.884;2022-10-19T00:43:24;9.90;99.90
15906;DHT22;8051;50.820;4.884;2022-10-19T00:45:51;9.80;99.90
15906;DHT22;8051;50.820;4.884;2022-10-19T00:48:21;9.90;99.90
15906;DHT22;8051;50.820;4.884;2022-10-19T00:50:49;9.90;99.90
15906;DHT22;8051;50.820;4.884;2022-10-19T00:53:16;9.90;99.90
15906;DHT22;8051;50.820;4.884;2022-10-19T00:55:44;9.90;99.90
15906;DHT22;8051;50.820;4.884;2022-10-19T00:58:12;9.80;99.90
15906;DHT22;8051;50.820;4.884;2022-10-19T01:00:41;9.80;99.90
15906;DHT22;8051;50.820;4.884;2022-10-19T01:03:09;9.80;99.90
15906;DHT22;8051;50.820;4.884;2022-10-19T01:05:36;9.80;99.90
15906;DHT22;8051;50.820;4.884;2022-10-19T01:08:04;9.80;99.90
15906;DHT22;8051;50.820;4.884;2022-10-19T01:10:37;9.80;99.90
15906;DHT22;8051;50.820;4.884;2022-10-19T01:13:17;9.70;99.90
15906;DHT22;8051;50.820;4.884;2022-10-19T01:15:54;9.70;99.90
15906;DHT22;8051;50.820;4.884;2022-10-19T01:18:28;9.70;99.90
15906;DHT22;8051;50.820;4.884;2022-10-19T01:21:14;9.70;99.90
15906;DHT22;8051;50.820;4.884;2022-10-19T01:24:20;9.70;99.90
15906;DHT22;8051;50.820;4.884;2022-10-19T01:27:21;9.70;99.90
15906;DHT22;8051;50.820;4.884;2022-10-19T01:30:01;9.70;99.90
15906;DHT22;8051;50.820;4.884;2022-10-19T01:32:33;9.60;99.90
15906;DHT22;8051;50.820;4.884;2022-10-19T01:35:06;9.60;99.90
15906;DHT22;8051;50.820;4.884;2022-10-19T01:37:39;9.60;99.90
15906;DHT22;8051;50.820;4.884;2022-10-19T01:40:19;9.50;99.90
15906;DHT22;8051;50.820;4.884;2022-10-19T01:42:58;9.50;99.90
15906;DHT22;8051;50.820;4.884;2022-10-19T01:45:32;9.50;99.90
15906;DHT22;8051;50.820;4.884;2022-10-19T01:48:05;9.50;99.90
15906;DHT22;8051;50.820;4.884;2022-10-19T01:50:38;9.40;99.90
15906;DHT22;8051;50.820;4.884;2022-10-19T01:53:08;9.40;99.90
15906;DHT22;8051;50.820;4.884;2022-10-19T01:55:39;9.40;99.90
15906;DHT22;8051;50.820;4.884;2022-10-19T01:58:11;9.40;99.90
15906;DHT22;8051;50.820;4.884;2022-10-19T02:00:42;9.40;99.90
15906;DHT22;8051;50.820;4.884;2022-10-19T02:03:12;9.30;99.90
15906;DHT22;8051;50.820;4.884;2022-10-19T02:05:39;9.30;99.90
15906;DHT22;8051;50.820;4.884;2022-10-19T02:08:14;9.30;99.90
15906;DHT22;8051;50.820;4.884;2022-10-19T02:10:43;9.30;99.90
15906;DHT22;8051;50.820;4.884;2022-10-19T02:13:13;9.30;99.90
15906;DHT22;8051;50.820;4.884;2022-10-19T02:15:44;9.30;99.90
15906;DHT22;8051;50.820;4.884;2022-10-19T02:18:13;9.30;99.90
15906;DHT22;8051;50.820;4.884;2022-10-19T02:20:41;9.30;99.90
15906;DHT22;8051;50.820;4.884;2022-10-19T02:23:08;9.20;99.90
15906;DHT22;8051;50.820;4.884;2022-10-19T02:25:35;9.20;99.90
15906;DHT22;8051;50.820;4.884;2022-10-19T02:28:03;9.20;99.90
15906;DHT22;8051;50.820;4.884;2022-10-19T02:30:31;9.20;99.90
15906;DHT22;8051;50.820;4.884;2022-10-19T02:32:59;9.10;99.90
15906;DHT22;8051;50.820;4.884;2022-10-19T02:35:26;9.20;99.90
15906;DHT22;8051;50.820;4.884;2022-10-19T02:37:53;9.10;99.90
15906;DHT22;8051;50.820;4.884;2022-10-19T02:40:23;9.10;99.90
15906;DHT22;8051;50.820;4.884;2022-10-19T02:42:53;9.10;99.90
15906;DHT22;8051;50.820;4.884;2022-10-19T02:45:24;9.10;99.90
15906;DHT22;8051;50.820;4.884;2022-10-19T02:47:54;9.10;99.90
15906;DHT22;8051;50.820;4.884;2022-10-19T02:50:24;9.00;99.90
15906;DHT22;8051;50.820;4.884;2022-10-19T02:52:51;9.00;99.90
15906;DHT22;8051;50.820;4.884;2022-10-19T02:55:18;9.00;99.90
15906;DHT22;8051;50.820;4.884;2022-10-19T02:57:45;9.00;99.90
15906;DHT22;8051;50.820;4.884;2022-10-19T03:00:12;9.00;99.90
15906;DHT22;8051;50.820;4.884;2022-10-19T03:02:39;9.00;99.90
15906;DHT22;8051;50.820;4.884;2022-10-19T03:05:07;9.00;99.90
15906;DHT22;8051;50.820;4.884;2022-10-19T03:07:36;8.90;99.90
15906;DHT22;8051;50.820;4.884;2022-10-19T03:10:03;8.90;99.90
15906;DHT22;8051;50.820;4.884;2022-10-19T03:12:30;8.90;99.90
15906;DHT22;8051;50.820;4.884;2022-10-19T03:14:57;8.90;99.90
15906;DHT22;8051;50.820;4.884;2022-10-19T03:17:23;8.90;99.90
15906;DHT22;8051;50.820;4.884;2022-10-19T03:19:51;8.90;99.90
15906;DHT22;8051;50.820;4.884;2022-10-19T03:22:18;8.90;99.90
15906;DHT22;8051;50.820;4.884;2022-10-19T03:24:46;8.90;99.90
15906;DHT22;8051;50.820;4.884;2022-10-19T03:27:13;8.90;99.90
15906;DHT22;8051;50.820;4.884;2022-10-19T03:29:40;8.80;99.90
15906;DHT22;8051;50.820;4.884;2022-10-19T03:32:07;8.80;99.90
15906;DHT22;8051;50.820;4.884;2022-10-19T03:34:34;8.90;99.90
15906;DHT22;8051;50.820;4.884;2022-10-19T03:37:00;8.90;99.90
15906;DHT22;8051;50.820;4.884;2022-10-19T03:39:27;8.80;99.90
15906;DHT22;8051;50.820;4.884;2022-10-19T03:41:56;8.90;99.90
15906;DHT22;8051;50.820;4.884;2022-10-19T03:44:22;8.80;99.90
15906;DHT22;8051;50.820;4.884;2022-10-19T03:46:49;8.80;99.90
15906;DHT22;8051;50.820;4.884;2022-10-19T03:49:16;8.80;99.90
15906;DHT22;8051;50.820;4.884;2022-10-19T03:51:43;8.80;99.90
15906;DHT22;8051;50.820;4.884;2022-10-19T03:54:12;8.80;99.90
15906;DHT22;8051;50.820;4.884;2022-10-19T03:56:40;8.80;99.90
15906;DHT22;8051;50.820;4.884;2022-10-19T03:59:11;8.80;99.90
15906;DHT22;8051;50.820;4.884;2022-10-19T04:01:40;8.70;99.90
15906;DHT22;8051;50.820;4.884;2022-10-19T04:04:10;8.70;99.90
15906;DHT22;8051;50.820;4.884;2022-10-19T04:06:40;8.70;99.90
15906;DHT22;8051;50.820;4.884;2022-10-19T04:09:09;8.70;99.90
15906;DHT22;8051;50.820;4.884;2022-10-19T04:11:37;8.70;99.90
15906;DHT22;8051;50.820;4.884;2022-10-19T04:14:04;8.70;99.90
15906;DHT22;8051;50.820;4.884;2022-10-19T04:16:32;8.70;99.90
15906;DHT22;8051;50.820;4.884;2022-10-19T04:19:00;8.70;99.90
15906;DHT22;8051;50.820;4.884;2022-10-19T04:21:28;8.70;99.90
15906;DHT22;8051;50.820;4.884;2022-10-19T04:23:59;8.60;99.90
15906;DHT22;8051;50.820;4.884;2022-10-19T04:26:27;8.60;99.90
15906;DHT22;8051;50.820;4.884;2022-10-19T04:28:56;8.60;99.90
15906;DHT22;8051;50.820;4.884;2022-10-19T04:31:23;8.50;99.90
15906;DHT22;8051;50.820;4.884;2022-10-19T04:33:52;8.50;99.90
15906;DHT22;8051;50.820;4.884;2022-10-19T04:36:19;8.50;99.90
15906;DHT22;8051;50.820;4.884;2022-10-19T04:38:46;8.50;99.90
15906;DHT22;8051;50.820;4.884;2022-10-19T04:41:15;8.50;99.90
15906;DHT22;8051;50.820;4.884;2022-10-19T04:43:43;8.50;99.90
15906;DHT22;8051;50.820;4.884;2022-10-19T04:46:11;8.50;99.90
15906;DHT22;8051;50.820;4.884;2022-10-19T04:48:39;8.50;99.90
15906;DHT22;8051;50.820;4.884;2022-10-19T04:51:08;8.40;99.90
15906;DHT22;8051;50.820;4.884;2022-10-19T04:53:36;8.40;99.90
15906;DHT22;8051;50.820;4.884;2022-10-19T04:56:05;8.40;99.90
15906;DHT22;8051;50.820;4.884;2022-10-19T04:58:32;8.40;99.90
15906;DHT22;8051;50.820;4.884;2022-10-19T05:01:06;8.40;99.90
15906;DHT22;8051;50.820;4.884;2022-10-19T05:03:32;8.40;99.90
15906;DHT22;8051;50.820;4.884;2022-10-19T05:05:59;8.30;99.90
15906;DHT22;8051;50.820;4.884;2022-10-19T05:08:28;8.30;99.90
15906;DHT22;8051;50.820;4.884;2022-10-19T05:10:59;8.40;99.90
15906;DHT22;8051;50.820;4.884;2022-10-19T05:13:26;8.30;99.90
15906;DHT22;8051;50.820;4.884;2022-10-19T05:15:57;8.30;99.90
15906;DHT22;8051;50.820;4.884;2022-10-19T05:18:24;8.30;99.90
15906;DHT22;8051;50.820;4.884;2022-10-19T05:21:01;8.30;99.90
15906;DHT22;8051;50.820;4.884;2022-10-19T05:23:30;8.30;99.90
15906;DHT22;8051;50.820;4.884;2022-10-19T05:26:01;8.20;99.90
15906;DHT22;8051;50.820;4.884;2022-10-19T05:28:28;8.20;99.90
15906;DHT22;8051;50.820;4.884;2022-10-19T05:30:55;8.20;99.90
15906;DHT22;8051;50.820;4.884;2022-10-19T05:33:22;8.20;99.90
15906;DHT22;8051;50.820;4.884;2022-10-19T05:35:49;8.20;99.90
15906;DHT22;8051;50.820;4.884;2022-10-19T05:38:16;8.10;99.90
15906;DHT22;8051;50.820;4.884;2022-10-19T05:40:47;8.10;99.90
15906;DHT22;8051;50.820;4.884;2022-10-19T05:43:14;8.10;99.90
15906;DHT22;8051;50.820;4.884;2022-10-19T05:45:40;8.10;99.90
15906;DHT22;8051;50.820;4.884;2022-10-19T05:48:08;8.20;99.90
15906;DHT22;8051;50.820;4.884;2022-10-19T05:50:34;8.10;99.90
15906;DHT22;8051;50.820;4.884;2022-10-19T05:53:01;8.10;99.90
15906;DHT22;8051;50.820;4.884;2022-10-19T05:55:28;8.10;99.90
15906;DHT22;8051;50.820;4.884;2022-10-19T05:57:56;8.00;99.90
15906;DHT22;8051;50.820;4.884;2022-10-19T06:00:23;8.00;99.90
15906;DHT22;8051;50.820;4.884;2022-10-19T06:02:50;8.00;99.90
15906;DHT22;8051;50.820;4.884;2022-10-19T06:05:17;8.00;99.90
15906;DHT22;8051;50.820;4.884;2022-10-19T06:07:44;8.00;99.90
15906;DHT22;8051;50.820;4.884;2022-10-19T06:10:10;8.00;99.90
15906;DHT22;8051;50.820;4.884;2022-10-19T06:12:37;8.00;99.90
15906;DHT22;8051;50.820;4.884;2022-10-19T06:15:06;7.90;99.90
15906;DHT22;8051;50.820;4.884;2022-10-19T06:17:33;8.00;99.90
15906;DHT22;8051;50.820;4.884;2022-10-19T06:20:00;8.00;99.90
15906;DHT22;8051;50.820;4.884;2022-10-19T06:22:27;8.00;99.90
15906;DHT22;8051;50.820;4.884;2022-10-19T06:24:54;7.90;99.90
15906;DHT22;8051;50.820;4.884;2022-10-19T06:27:21;7.90;99.90
15906;DHT22;8051;50.820;4.884;2022-10-19T06:29:48;8.00;99.90
15906;DHT22;8051;50.820;4.884;2022-10-19T06:32:16;8.00;99.90
15906;DHT22;8051;50.820;4.884;2022-10-19T06:34:43;8.00;99.90
15906;DHT22;8051;50.820;4.884;2022-10-19T06:37:10;8.00;99.90
15906;DHT22;8051;50.820;4.884;2022-10-19T06:39:37;8.10;99.90
15906;DHT22;8051;50.820;4.884;2022-10-19T06:42:04;8.10;99.90
15906;DHT22;8051;50.820;4.884;2022-10-19T06:44:30;8.10;99.90
15906;DHT22;8051;50.820;4.884;2022-10-19T06:46:57;8.10;99.90
15906;DHT22;8051;50.820;4.884;2022-10-19T06:49:25;8.10;99.90
15906;DHT22;8051;50.820;4.884;2022-10-19T06:51:52;8.10;99.90
15906;DHT22;8051;50.820;4.884;2022-10-19T06:54:19;8.10;99.90
15906;DHT22;8051;50.820;4.884;2022-10-19T06:56:46;8.10;99.90
15906;DHT22;8051;50.820;4.884;2022-10-19T06:59:13;8.20;99.90
15906;DHT22;8051;50.820;4.884;2022-10-19T07:01:42;8.20;99.90
15906;DHT22;8051;50.820;4.884;2022-10-19T07:04:09;8.20;99.90
15906;DHT22;8051;50.820;4.884;2022-10-19T07:06:37;8.30;99.90
15906;DHT22;8051;50.820;4.884;2022-10-19T07:09:04;8.30;99.90
15906;DHT22;8051;50.820;4.884;2022-10-19T07:11:31;8.30;99.90
15906;DHT22;8051;50.820;4.884;2022-10-19T07:13:57;8.30;99.90
15906;DHT22;8051;50.820;4.884;2022-10-19T07:16:24;8.40;99.90
15906;DHT22;8051;50.820;4.884;2022-10-19T07:18:52;8.50;99.90
15906;DHT22;8051;50.820;4.884;2022-10-19T07:21:21;8.50;99.90
15906;DHT22;8051;50.820;4.884;2022-10-19T07:23:49;8.50;99.90
15906;DHT22;8051;50.820;4.884;2022-10-19T07:26:18;8.60;99.90
15906;DHT22;8051;50.820;4.884;2022-10-19T07:28:47;8.70;99.90
15906;DHT22;8051;50.820;4.884;2022-10-19T07:31:16;8.70;99.90
15906;DHT22;8051;50.820;4.884;2022-10-19T07:33:44;8.80;99.90
15906;DHT22;8051;50.820;4.884;2022-10-19T07:36:12;8.80;99.90
15906;DHT22;8051;50.820;4.884;2022-10-19T07:38:39;8.80;99.90
15906;DHT22;8051;50.820;4.884;2022-10-19T07:41:09;8.90;99.90
15906;DHT22;8051;50.820;4.884;2022-10-19T07:43:37;9.10;99.90
15906;DHT22;8051;50.820;4.884;2022-10-19T07:46:06;9.10;99.90
15906;DHT22;8051;50.820;4.884;2022-10-19T07:48:34;9.10;99.90
15906;DHT22;8051;50.820;4.884;2022-10-19T07:51:03;9.20;99.90
15906;DHT22;8051;50.820;4.884;2022-10-19T07:53:30;9.20;99.90
15906;DHT22;8051;50.820;4.884;2022-10-19T07:56:02;9.30;99.90
15906;DHT22;8051;50.820;4.884;2022-10-19T07:58:31;9.40;99.90
15906;DHT22;8051;50.820;4.884;2022-10-19T08:00:59;9.50;99.90
15906;DHT22;8051;50.820;4.884;2022-10-19T08:03:26;9.60;99.90
15906;DHT22;8051;50.820;4.884;2022-10-19T08:05:54;9.60;99.90
15906;DHT22;8051;50.820;4.884;2022-10-19T08:08:24;9.60;99.90
15906;DHT22;8051;50.820;4.884;2022-10-19T08:10:51;9.70;99.90
15906;DHT22;8051;50.820;4.884;2022-10-19T08:13:18;9.70;99.90
15906;DHT22;8051;50.820;4.884;2022-10-19T08:15:46;9.80;99.90
15906;DHT22;8051;50.820;4.884;2022-10-19T08:18:14;9.80;99.90
15906;DHT22;8051;50.820;4.884;2022-10-19T08:20:42;9.80;99.90
15906;DHT22;8051;50.820;4.884;2022-10-19T08:23:09;9.90;99.90
15906;DHT22;8051;50.820;4.884;2022-10-19T08:25:36;9.90;99.90
15906;DHT22;8051;50.820;4.884;2022-10-19T08:28:03;10.00;99.90
15906;DHT22;8051;50.820;4.884;2022-10-19T08:30:30;10.10;99.90
15906;DHT22;8051;50.820;4.884;2022-10-19T08:32:58;10.10;99.90
15906;DHT22;8051;50.820;4.884;2022-10-19T08:35:25;10.20;99.90
15906;DHT22;8051;50.820;4.884;2022-10-19T08:37:51;10.30;99.90
15906;DHT22;8051;50.820;4.884;2022-10-19T08:40:23;10.30;99.90
15906;DHT22;8051;50.820;4.884;2022-10-19T08:42:56;10.40;99.90
15906;DHT22;8051;50.820;4.884;2022-10-19T08:45:37;10.50;99.90
15906;DHT22;8051;50.820;4.884;2022-10-19T08:48:24;10.60;99.90
15906;DHT22;8051;50.820;4.884;2022-10-19T08:50:53;10.70;99.90
15906;DHT22;8051;50.820;4.884;2022-10-19T08:53:26;10.80;99.90
15906;DHT22;8051;50.820;4.884;2022-10-19T08:56:04;10.80;99.90
15906;DHT22;8051;50.820;4.884;2022-10-19T08:58:44;11.00;99.90
15906;DHT22;8051;50.820;4.884;2022-10-19T09:01:15;11.10;99.90
15906;DHT22;8051;50.820;4.884;2022-10-19T09:03:51;11.20;99.90
15906;DHT22;8051;50.820;4.884;2022-10-19T09:06:26;11.30;99.90
15906;DHT22;8051;50.820;4.884;2022-10-19T09:08:54;11.40;99.90
15906;DHT22;8051;50.820;4.884;2022-10-19T09:11:24;11.50;99.90
15906;DHT22;8051;50.820;4.884;2022-10-19T09:13:59;11.50;99.90
15906;DHT22;8051;50.820;4.884;2022-10-19T09:16:30;11.60;99.90
15906;DHT22;8051;50.820;4.884;2022-10-19T09:18:58;11.70;99.90
15906;DHT22;8051;50.820;4.884;2022-10-19T09:21:29;11.90;99.90
15906;DHT22;8051;50.820;4.884;2022-10-19T09:24:03;12.10;99.90
15906;DHT22;8051;50.820;4.884;2022-10-19T09:26:34;12.20;99.90
15906;DHT22;8051;50.820;4.884;2022-10-19T09:29:05;12.20;99.90
15906;DHT22;8051;50.820;4.884;2022-10-19T09:31:37;12.30;99.90
15906;DHT22;8051;50.820;4.884;2022-10-19T09:34:10;12.40;99.90
15906;DHT22;8051;50.820;4.884;2022-10-19T09:36:41;12.50;99.90
15906;DHT22;8051;50.820;4.884;2022-10-19T09:39:10;12.60;99.90
15906;DHT22;8051;50.820;4.884;2022-10-19T09:41:43;12.70;99.90
15906;DHT22;8051;50.820;4.884;2022-10-19T09:44:10;12.80;99.90
15906;DHT22;8051;50.820;4.884;2022-10-19T09:46:44;12.80;99.90
15906;DHT22;8051;50.820;4.884;2022-10-19T09:49:17;13.00;99.90
15906;DHT22;8051;50.820;4.884;2022-10-19T09:51:50;13.10;99.90
15906;DHT22;8051;50.820;4.884;2022-10-19T09:54:26;13.20;99.90
15906;DHT22;8051;50.820;4.884;2022-10-19T09:56:56;13.30;99.90
15906;DHT22;8051;50.820;4.884;2022-10-19T09:59:28;13.30;99.90
15906;DHT22;8051;50.820;4.884;2022-10-19T10:02:15;13.30;99.90
15906;DHT22;8051;50.820;4.884;2022-10-19T10:04:46;13.40;99.90
15906;DHT22;8051;50.820;4.884;2022-10-19T10:07:16;13.50;99.90
15906;DHT22;8051;50.820;4.884;2022-10-19T10:09:43;13.60;99.90
15906;DHT22;8051;50.820;4.884;2022-10-19T10:12:13;13.60;99.90
15906;DHT22;8051;50.820;4.884;2022-10-19T10:14:40;13.70;99.90
15906;DHT22;8051;50.820;4.884;2022-10-19T10:17:14;13.70;99.90
15906;DHT22;8051;50.820;4.884;2022-10-19T10:20:15;13.90;99.90
15906;DHT22;8051;50.820;4.884;2022-10-19T10:22:51;13.90;99.90
15906;DHT22;8051;50.820;4.884;2022-10-19T10:25:18;14.00;99.90
15906;DHT22;8051;50.820;4.884;2022-10-19T10:27:54;14.10;99.90
15906;DHT22;8051;50.820;4.884;2022-10-19T10:30:22;14.20;99.90
15906;DHT22;8051;50.820;4.884;2022-10-19T10:32:50;14.30;99.90
15906;DHT22;8051;50.820;4.884;2022-10-19T10:35:23;14.40;99.90
15906;DHT22;8051;50.820;4.884;2022-10-19T10:37:52;14.40;99.90
15906;DHT22;8051;50.820;4.884;2022-10-19T10:40:21;14.50;99.90
15906;DHT22;8051;50.820;4.884;2022-10-19T10:42:50;14.50;99.90
15906;DHT22;8051;50.820;4.884;2022-10-19T10:45:21;14.60;99.90
15906;DHT22;8051;50.820;4.884;2022-10-19T10:47:49;14.70;99.90
15906;DHT22;8051;50.820;4.884;2022-10-19T10:50:21;14.60;99.90
15906;DHT22;8051;50.820;4.884;2022-10-19T10:52:59;14.70;99.90
15906;DHT22;8051;50.820;4.884;2022-10-19T10:55:28;14.70;99.90
15906;DHT22;8051;50.820;4.884;2022-10-19T10:58:10;14.80;99.90
15906;DHT22;8051;50.820;4.884;2022-10-19T11:00:41;14.90;99.90
15906;DHT22;8051;50.820;4.884;2022-10-19T11:03:13;15.00;99.90
15906;DHT22;8051;50.820;4.884;2022-10-19T11:05:45;15.10;99.90
15906;DHT22;8051;50.820;4.884;2022-10-19T11:08:20;15.10;99.90
15906;DHT22;8051;50.820;4.884;2022-10-19T11:10:53;15.20;99.90
15906;DHT22;8051;50.820;4.884;2022-10-19T11:13:26;15.30;99.90
15906;DHT22;8051;50.820;4.884;2022-10-19T11:15:57;15.30;99.90
15906;DHT22;8051;50.820;4.884;2022-10-19T11:18:28;15.30;99.90
15906;DHT22;8051;50.820;4.884;2022-10-19T11:21:03;15.30;99.90
15906;DHT22;8051;50.820;4.884;2022-10-19T11:23:46;15.40;99.90
15906;DHT22;8051;50.820;4.884;2022-10-19T11:26:37;15.50;99.90
15906;DHT22;8051;50.820;4.884;2022-10-19T11:29:16;15.50;99.90
15906;DHT22;8051;50.820;4.884;2022-10-19T11:31:47;15.50;99.90
15906;DHT22;8051;50.820;4.884;2022-10-19T11:34:33;15.50;99.90
15906;DHT22;8051;50.820;4.884;2022-10-19T11:37:14;15.60;99.90
15906;DHT22;8051;50.820;4.884;2022-10-19T11:39:53;15.70;99.90
15906;DHT22;8051;50.820;4.884;2022-10-19T11:42:31;15.80;99.90
15906;DHT22;8051;50.820;4.884;2022-10-19T11:45:12;15.80;99.90
15906;DHT22;8051;50.820;4.884;2022-10-19T11:48:02;15.80;99.90
15906;DHT22;8051;50.820;4.884;2022-10-19T11:50:39;15.80;99.90
15906;DHT22;8051;50.820;4.884;2022-10-19T11:53:17;15.90;99.90
15906;DHT22;8051;50.820;4.884;2022-10-19T11:55:52;15.90;99.90
15906;DHT22;8051;50.820;4.884;2022-10-19T11:58:37;15.90;99.90
15906;DHT22;8051;50.820;4.884;2022-10-19T12:01:15;15.90;99.90
15906;DHT22;8051;50.820;4.884;2022-10-19T12:04:12;15.90;99.90
15906;DHT22;8051;50.820;4.884;2022-10-19T12:06:52;16.00;99.90
15906;DHT22;8051;50.820;4.884;2022-10-19T12:09:32;16.00;99.90
15906;DHT22;8051;50.820;4.884;2022-10-19T12:12:17;16.20;99.90
15906;DHT22;8051;50.820;4.884;2022-10-19T12:14:50;16.20;99.90
15906;DHT22;8051;50.820;4.884;2022-10-19T12:17:22;16.30;99.90
15906;DHT22;8051;50.820;4.884;2022-10-19T12:19:54;16.20;99.90
15906;DHT22;8051;50.820;4.884;2022-10-19T12:22:24;16.30;99.90
15906;DHT22;8051;50.820;4.884;2022-10-19T12:24:54;16.30;99.90
15906;DHT22;8051;50.820;4.884;2022-10-19T12:27:28;16.40;99.90
15906;DHT22;8051;50.820;4.884;2022-10-19T12:30:00;16.50;99.90
15906;DHT22;8051;50.820;4.884;2022-10-19T12:32:30;16.40;99.90
15906;DHT22;8051;50.820;4.884;2022-10-19T12:35:06;16.50;99.90
15906;DHT22;8051;50.820;4.884;2022-10-19T12:37:40;16.40;99.90
15906;DHT22;8051;50.820;4.884;2022-10-19T12:40:18;16.40;99.90
15906;DHT22;8051;50.820;4.884;2022-10-19T12:42:56;16.40;99.90
15906;DHT22;8051;50.820;4.884;2022-10-19T12:45:27;16.50;99.90
15906;DHT22;8051;50.820;4.884;2022-10-19T12:48:20;16.50;99.90
15906;DHT22;8051;50.820;4.884;2022-10-19T12:51:12;16.60;99.90
15906;DHT22;8051;50.820;4.884;2022-10-19T12:53:41;16.70;99.90
15906;DHT22;8051;50.820;4.884;2022-10-19T12:56:16;16.80;99.90
15906;DHT22;8051;50.820;4.884;2022-10-19T12:58:48;16.70;99.90
15906;DHT22;8051;50.820;4.884;2022-10-19T13:01:20;16.80;99.90
15906;DHT22;8051;50.820;4.884;2022-10-19T13:03:50;16.90;99.90
15906;DHT22;8051;50.820;4.884;2022-10-19T13:06:29;17.00;99.90
15906;DHT22;8051;50.820;4.884;2022-10-19T13:08:59;16.90;99.90
15906;DHT22;8051;50.820;4.884;2022-10-19T13:11:28;16.90;99.90
15906;DHT22;8051;50.820;4.884;2022-10-19T13:14:10;16.90;99.90
15906;DHT22;8051;50.820;4.884;2022-10-19T13:16:57;17.00;99.90
15906;DHT22;8051;50.820;4.884;2022-10-19T13:19:24;17.00;99.90
15906;DHT22;8051;50.820;4.884;2022-10-19T13:24:36;16.80;99.90
15906;DHT22;8051;50.820;4.884;2022-10-19T13:27:26;16.60;99.90
15906;DHT22;8051;50.820;4.884;2022-10-19T13:29:53;16.50;99.90
15906;DHT22;8051;50.820;4.884;2022-10-19T13:32:39;16.50;99.90
15906;DHT22;8051;50.820;4.884;2022-10-19T13:35:25;16.40;99.90
15906;DHT22;8051;50.820;4.884;2022-10-19T13:38:21;16.40;99.90
15906;DHT22;8051;50.820;4.884;2022-10-19T13:41:12;16.40;99.90
15906;DHT22;8051;50.820;4.884;2022-10-19T13:43:51;16.40;99.90
15906;DHT22;8051;50.820;4.884;2022-10-19T13:46:21;16.30;99.90
15906;DHT22;8051;50.820;4.884;2022-10-19T13:49:24;16.30;99.90
15906;DHT22;8051;50.820;4.884;2022-10-19T13:52:02;16.30;99.90
15906;DHT22;8051;50.820;4.884;2022-10-19T13:54:48;16.40;99.90
15906;DHT22;8051;50.820;4.884;2022-10-19T13:57:19;16.40;99.90
15906;DHT22;8051;50.820;4.884;2022-10-19T14:00:08;16.30;99.90
15906;DHT22;8051;50.820;4.884;2022-10-19T14:03:00;16.30;99.90
15906;DHT22;8051;50.820;4.884;2022-10-19T14:08:37;16.30;99.90
15906;DHT22;8051;50.820;4.884;2022-10-19T14:11:12;16.30;99.90
15906;DHT22;8051;50.820;4.884;2022-10-19T14:13:40;16.20;99.90
15906;DHT22;8051;50.820;4.884;2022-10-19T14:16:17;16.10;99.90
15906;DHT22;8051;50.820;4.884;2022-10-19T14:18:52;16.20;99.90
15906;DHT22;8051;50.820;4.884;2022-10-19T14:21:29;16.20;99.90
15906;DHT22;8051;50.820;4.884;2022-10-19T14:23:56;16.30;99.90
15906;DHT22;8051;50.820;4.884;2022-10-19T14:26:25;16.30;99.90
15906;DHT22;8051;50.820;4.884;2022-10-19T14:28:55;16.20;99.90
15906;DHT22;8051;50.820;4.884;2022-10-19T14:31:34;16.30;99.90
15906;DHT22;8051;50.820;4.884;2022-10-19T14:34:03;16.30;99.90
15906;DHT22;8051;50.820;4.884;2022-10-19T14:36:35;16.30;99.90
15906;DHT22;8051;50.820;4.884;2022-10-19T14:39:03;16.40;99.90
15906;DHT22;8051;50.820;4.884;2022-10-19T14:41:34;16.40;99.90
15906;DHT22;8051;50.820;4.884;2022-10-19T14:44:20;16.40;99.90
15906;DHT22;8051;50.820;4.884;2022-10-19T14:46:51;16.40;99.90
15906;DHT22;8051;50.820;4.884;2022-10-19T14:49:18;16.30;99.90
15906;DHT22;8051;50.820;4.884;2022-10-19T14:51:48;16.30;99.90
15906;DHT22;8051;50.820;4.884;2022-10-19T14:54:22;16.30;99.90
15906;DHT22;8051;50.820;4.884;2022-10-19T14:56:53;16.20;99.90
15906;DHT22;8051;50.820;4.884;2022-10-19T14:59:24;16.20;99.90
15906;DHT22;8051;50.820;4.884;2022-10-19T15:01:55;16.10;99.90
15906;DHT22;8051;50.820;4.884;2022-10-19T15:04:27;16.10;99.90
15906;DHT22;8051;50.820;4.884;2022-10-19T15:06:56;16.10;99.90
15906;DHT22;8051;50.820;4.884;2022-10-19T15:09:26;16.00;99.90
15906;DHT22;8051;50.820;4.884;2022-10-19T15:11:54;16.00;99.90
15906;DHT22;8051;50.820;4.884;2022-10-19T15:14:27;16.00;99.90
15906;DHT22;8051;50.820;4.884;2022-10-19T15:16:58;16.00;99.90
15906;DHT22;8051;50.820;4.884;2022-10-19T15:19:29;15.90;99.90
15906;DHT22;8051;50.820;4.884;2022-10-19T15:22:14;15.90;99.90
15906;DHT22;8051;50.820;4.884;2022-10-19T15:24:55;15.80;99.90
15906;DHT22;8051;50.820;4.884;2022-10-19T15:27:28;15.70;99.90
15906;DHT22;8051;50.820;4.884;2022-10-19T15:29:58;15.60;99.90
15906;DHT22;8051;50.820;4.884;2022-10-19T15:32:29;15.60;99.90
15906;DHT22;8051;50.820;4.884;2022-10-19T15:34:58;15.50;99.90
15906;DHT22;8051;50.820;4.884;2022-10-19T15:37:26;15.50;99.90
15906;DHT22;8051;50.820;4.884;2022-10-19T15:39:54;15.40;99.90
15906;DHT22;8051;50.820;4.884;2022-10-19T15:42:32;15.40;99.90
15906;DHT22;8051;50.820;4.884;2022-10-19T15:45:01;15.30;99.90
15906;DHT22;8051;50.820;4.884;2022-10-19T15:47:29;15.20;99.90
15906;DHT22;8051;50.820;4.884;2022-10-19T15:49:58;15.10;99.90
15906;DHT22;8051;50.820;4.884;2022-10-19T15:52:27;15.10;99.90
15906;DHT22;8051;50.820;4.884;2022-10-19T15:54:55;15.00;99.90
15906;DHT22;8051;50.820;4.884;2022-10-19T15:57:29;14.90;99.90
15906;DHT22;8051;50.820;4.884;2022-10-19T15:59:57;14.80;99.90
15906;DHT22;8051;50.820;4.884;2022-10-19T16:02:24;14.80;99.90
15906;DHT22;8051;50.820;4.884;2022-10-19T16:04:53;14.70;99.90
15906;DHT22;8051;50.820;4.884;2022-10-19T16:07:24;14.60;99.90
15906;DHT22;8051;50.820;4.884;2022-10-19T16:09:52;14.60;99.90
15906;DHT22;8051;50.820;4.884;2022-10-19T16:12:20;14.60;99.90
15906;DHT22;8051;50.820;4.884;2022-10-19T16:14:47;14.50;99.90
15906;DHT22;8051;50.820;4.884;2022-10-19T16:17:14;14.40;99.90
15906;DHT22;8051;50.820;4.884;2022-10-19T16:19:42;14.40;99.90
15906;DHT22;8051;50.820;4.884;2022-10-19T16:22:11;14.40;99.90
15906;DHT22;8051;50.820;4.884;2022-10-19T16:24:39;14.30;99.90
15906;DHT22;8051;50.820;4.884;2022-10-19T16:27:06;14.30;99.90